sensor_id;sensor_type;location;lat;lon;timestamp;pressure;altitude;pressure_sealevel;temperature;humidity
55077;BME280;40971;44.702;11.030;2023-04-15T00:09:20;100310.53;;;5.71;74.08
55077;BME280;40971;44.702;11.030;2023-04-15T00:19:40;100303.72;;;5.51;73.89
55077;BME280;40971;44.702;11.030;2023-04-15T00:29:42;100297.28;;;5.36;75.10
55077;BME280;40971;44.702;11.030;2023-04-15T00:39:43;100279.81;;;4.90;77.24
55077;BME280;40971;44.702;11.030;2023-04-15T00:49:45;100269.16;;;5.40;77.21
55077;BME280;40971;44.702;11.030;2023-04-15T00:59:47;100280.25;;;5.61;75.68
55077;BME280;40971;44.702;11.030;2023-04-15T01:09:49;100286.84;;;5.55;75.68
55077;BME280;40971;44.702;11.030;2023-04-15T01:19:51;100293.50;;;4.73;77.42
55077;BME280;40971;44.702;11.030;2023-04-15T01:29:53;100288.97;;;5.04;78.41
55077;BME280;40971;44.702;11.030;2023-04-15T01:39:54;100308.44;;;4.71;78.08
55077;BME280;40971;44.702;11.030;2023-04-15T01:49:57;100285.97;;;4.70;78.88
55077;BME280;40971;44.702;11.030;2023-04-15T02:00:17;100284.31;;;4.69;78.97
55077;BME280;40971;44.702;11.030;2023-04-15T02:10:18;100290.13;;;4.33;80.33
55077;BME280;40971;44.702;11.030;2023-04-15T02:30:40;100299.53;;;3.24;82.86
55077;BME280;40971;44.702;11.030;2023-04-15T02:40:41;100320.09;;;3.16;83.69
55077;BME280;40971;44.702;11.030;2023-04-15T02:50:42;100323.88;;;3.74;81.50
55077;BME280;40971;44.702;11.030;2023-04-15T03:00:44;100322.00;;;3.85;80.98
55077;BME280;40971;44.702;11.030;2023-04-15T03:10:45;100315.94;;;4.05;78.99
55077;BME280;40971;44.702;11.030;2023-04-15T03:20:47;100313.13;;;2.96;81.92
55077;BME280;40971;44.702;11.030;2023-04-15T03:30:49;100303.44;;;3.39;82.53
55077;BME280;40971;44.702;11.030;2023-04-15T03:40:53;100303.28;;;3.61;82.47
55077;BME280;40971;44.702;11.030;2023-04-15T03:50:54;100307.13;;;3.87;82.50
55077;BME280;40971;44.702;11.030;2023-04-15T04:00:56;100314.28;;;3.74;81.62
55077;BME280;40971;44.702;11.030;2023-04-15T04:10:58;100322.50;;;3.49;81.85
55077;BME280;40971;44.702;11.030;2023-04-15T04:21:00;100324.09;;;3.40;83.15
55077;BME280;40971;44.702;11.030;2023-04-15T04:31:01;100335.13;;;3.53;84.55
55077;BME280;40971;44.702;11.030;2023-04-15T04:41:03;100349.06;;;3.73;84.21
55077;BME280;40971;44.702;11.030;2023-04-15T04:51:04;100357.31;;;3.37;82.41
55077;BME280;40971;44.702;11.030;2023-04-15T05:01:05;100371.94;;;3.79;82.72
55077;BME280;40971;44.702;11.030;2023-04-15T05:11:07;100385.81;;;3.89;83.38
55077;BME280;40971;44.702;11.030;2023-04-15T05:21:09;100383.13;;;4.31;84.03
55077;BME280;40971;44.702;11.030;2023-04-15T05:31:10;100385.41;;;4.54;82.02
55077;BME280;40971;44.702;11.030;2023-04-15T05:41:12;100402.13;;;4.52;86.59
55077;BME280;40971;44.702;11.030;2023-04-15T05:51:15;100408.41;;;5.18;85.52
55077;BME280;40971;44.702;11.030;2023-04-15T06:01:17;100417.84;;;5.67;85.18
55077;BME280;40971;44.702;11.030;2023-04-15T06:11:22;100434.09;;;6.26;85.73
55077;BME280;40971;44.702;11.030;2023-04-15T06:21:24;100425.53;;;6.71;86.08
55077;BME280;40971;44.702;11.030;2023-04-15T06:31:26;100420.03;;;7.19;86.56
55077;BME280;40971;44.702;11.030;2023-04-15T06:41:29;100436.00;;;7.51;85.56
55077;BME280;40971;44.702;11.030;2023-04-15T06:51:30;100428.47;;;7.91;84.28
55077;BME280;40971;44.702;11.030;2023-04-15T07:01:33;100425.75;;;9.02;81.32
55077;BME280;40971;44.702;11.030;2023-04-15T07:11:34;100432.91;;;10.15;77.82
55077;BME280;40971;44.702;11.030;2023-04-15T07:21:36;100430.00;;;10.57;75.12
55077;BME280;40971;44.702;11.030;2023-04-15T07:31:39;100428.06;;;10.81;73.18
55077;BME280;40971;44.702;11.030;2023-04-15T07:41:42;100439.53;;;11.50;68.86
55077;BME280;40971;44.702;11.030;2023-04-15T07:51:45;100433.06;;;12.71;65.59
55077;BME280;40971;44.702;11.030;2023-04-15T08:01:46;100421.09;;;13.04;65.88
55077;BME280;40971;44.702;11.030;2023-04-15T08:11:48;100458.28;;;14.09;59.30
55077;BME280;40971;44.702;11.030;2023-04-15T08:21:53;100448.84;;;14.48;57.84
55077;BME280;40971;44.702;11.030;2023-04-15T08:31:54;100441.66;;;14.83;56.58
55077;BME280;40971;44.702;11.030;2023-04-15T08:42:03;100456.16;;;15.48;54.84
55077;BME280;40971;44.702;11.030;2023-04-15T08:52:08;100452.72;;;15.87;49.60
55077;BME280;40971;44.702;11.030;2023-04-15T09:02:10;100451.50;;;15.96;47.93
55077;BME280;40971;44.702;11.030;2023-04-15T09:12:12;100444.34;;;16.22;49.54
55077;BME280;40971;44.702;11.030;2023-04-15T09:22:14;100441.88;;;16.34;49.38
55077;BME280;40971;44.702;11.030;2023-04-15T09:32:17;100431.25;;;16.34;49.25
55077;BME280;40971;44.702;11.030;2023-04-15T09:42:20;100426.91;;;16.53;45.61
55077;BME280;40971;44.702;11.030;2023-04-15T09:52:26;100414.59;;;17.60;47.63
55077;BME280;40971;44.702;11.030;2023-04-15T10:02:30;100415.19;;;17.62;43.61
55077;BME280;40971;44.702;11.030;2023-04-15T10:12:36;100408.22;;;18.11;44.82
55077;BME280;40971;44.702;11.030;2023-04-15T10:22:37;100387.63;;;18.24;40.01
55077;BME280;40971;44.702;11.030;2023-04-15T10:32:40;100377.25;;;18.34;39.29
55077;BME280;40971;44.702;11.030;2023-04-15T10:42:44;100375.47;;;18.83;40.48
55077;BME280;40971;44.702;11.030;2023-04-15T10:52:49;100377.63;;;18.74;40.39
55077;BME280;40971;44.702;11.030;2023-04-15T11:02:57;100370.34;;;18.70;40.91
55077;BME280;40971;44.702;11.030;2023-04-15T11:13:03;100361.81;;;18.25;42.44
55077;BME280;40971;44.702;11.030;2023-04-15T11:23:05;100359.13;;;18.07;40.80
55077;BME280;40971;44.702;11.030;2023-04-15T11:33:10;100347.75;;;18.72;39.91
55077;BME280;40971;44.702;11.030;2023-04-15T11:43:18;100349.53;;;18.24;36.41
55077;BME280;40971;44.702;11.030;2023-04-15T11:53:50;100339.00;;;18.53;39.37
55077;BME280;40971;44.702;11.030;2023-04-15T12:03:52;100341.59;;;19.31;35.56
55077;BME280;40971;44.702;11.030;2023-04-15T12:14:03;100337.47;;;19.47;37.58
55077;BME280;40971;44.702;11.030;2023-04-15T12:24:07;100330.03;;;18.66;37.75
55077;BME280;40971;44.702;11.030;2023-04-15T12:34:09;100327.56;;;19.36;38.50
55077;BME280;40971;44.702;11.030;2023-04-15T12:44:10;100324.16;;;19.17;37.83
55077;BME280;40971;44.702;11.030;2023-04-15T12:54:12;100323.81;;;18.54;37.13
55077;BME280;40971;44.702;11.030;2023-04-15T13:04:14;100309.47;;;19.14;35.62
55077;BME280;40971;44.702;11.030;2023-04-15T13:14:17;100305.13;;;19.55;34.83
55077;BME280;40971;44.702;11.030;2023-04-15T13:24:20;100308.59;;;19.02;34.53
55077;BME280;40971;44.702;11.030;2023-04-15T13:34:23;100308.41;;;19.15;36.54
55077;BME280;40971;44.702;11.030;2023-04-15T13:44:24;100302.81;;;19.05;34.23
55077;BME280;40971;44.702;11.030;2023-04-15T13:54:25;100305.97;;;19.14;32.21
55077;BME280;40971;44.702;11.030;2023-04-15T14:04:30;100302.56;;;19.60;33.72
55077;BME280;40971;44.702;11.030;2023-04-15T14:14:31;100288.94;;;19.03;32.35
55077;BME280;40971;44.702;11.030;2023-04-15T14:24:35;100285.53;;;18.96;41.08
55077;BME280;40971;44.702;11.030;2023-04-15T14:34:37;100290.53;;;19.04;39.23
55077;BME280;40971;44.702;11.030;2023-04-15T14:44:38;100286.69;;;18.89;38.87
55077;BME280;40971;44.702;11.030;2023-04-15T14:54:40;100279.00;;;19.22;37.58
55077;BME280;40971;44.702;11.030;2023-04-15T15:04:42;100287.53;;;18.71;38.13
55077;BME280;40971;44.702;11.030;2023-04-15T15:14:43;100303.28;;;18.25;46.24
55077;BME280;40971;44.702;11.030;2023-04-15T15:24:46;100318.91;;;17.78;43.71
55077;BME280;40971;44.702;11.030;2023-04-15T15:34:49;100314.06;;;17.75;44.97
55077;BME280;40971;44.702;11.030;2023-04-15T15:44:51;100340.00;;;17.48;47.65
55077;BME280;40971;44.702;11.030;2023-04-15T15:54:53;100337.03;;;17.14;48.51
55077;BME280;40971;44.702;11.030;2023-04-15T16:04:55;100360.41;;;17.30;48.48
55077;BME280;40971;44.702;11.030;2023-04-15T16:14:57;100363.22;;;17.04;48.89
55077;BME280;40971;44.702;11.030;2023-04-15T16:24:59;100382.84;;;17.03;49.19
55077;BME280;40971;44.702;11.030;2023-04-15T16:35:02;100387.34;;;16.51;51.24
55077;BME280;40971;44.702;11.030;2023-04-15T16:45:03;100403.13;;;16.20;51.28
55077;BME280;40971;44.702;11.030;2023-04-15T16:55:07;100410.09;;;15.95;52.03
55077;BME280;40971;44.702;11.030;2023-04-15T17:05:10;100442.75;;;15.82;52.87
55077;BME280;40971;44.702;11.030;2023-04-15T17:15:13;100453.34;;;15.62;54.72
55077;BME280;40971;44.702;11.030;2023-04-15T17:25:14;100467.06;;;15.19;56.68
55077;BME280;40971;44.702;11.030;2023-04-15T17:35:15;100469.91;;;14.70;57.48
55077;BME280;40971;44.702;11.030;2023-04-15T17:45:17;100507.84;;;14.28;58.74
55077;BME280;40971;44.702;11.030;2023-04-15T17:55:18;100519.16;;;13.94;60.21
55077;BME280;40971;44.702;11.030;2023-04-15T18:05:20;100525.28;;;13.73;61.46
55077;BME280;40971;44.702;11.030;2023-04-15T18:15:20;100547.69;;;13.63;62.46
55077;BME280;40971;44.702;11.030;2023-04-15T18:25:23;100566.78;;;13.29;64.32
55077;BME280;40971;44.702;11.030;2023-04-15T18:35:26;100588.25;;;12.97;65.26
55077;BME280;40971;44.702;11.030;2023-04-15T18:45:31;100617.91;;;12.69;67.34
55077;BME280;40971;44.702;11.030;2023-04-15T18:55:34;100630.81;;;12.64;67.18
55077;BME280;40971;44.702;11.030;2023-04-15T19:05:37;100655.19;;;12.44;68.11
55077;BME280;40971;44.702;11.030;2023-04-15T19:15:42;100663.22;;;12.27;65.51
55077;BME280;40971;44.702;11.030;2023-04-15T19:25:45;100689.25;;;12.00;66.99
55077;BME280;40971;44.702;11.030;2023-04-15T19:35:46;100712.19;;;11.91;66.67
55077;BME280;40971;44.702;11.030;2023-04-15T19:45:50;100712.28;;;11.98;65.68
55077;BME280;40971;44.702;11.030;2023-04-15T19:55:52;100730.31;;;11.86;66.91
55077;BME280;40971;44.702;11.030;2023-04-15T20:05:53;100745.88;;;11.41;69.16
55077;BME280;40971;44.702;11.030;2023-04-15T20:15:54;100767.66;;;11.02;71.57
55077;BME280;40971;44.702;11.030;2023-04-15T20:25:56;100762.03;;;10.65;73.29
55077;BME280;40971;44.702;11.030;2023-04-15T20:35:57;100779.03;;;10.37;75.02
55077;BME280;40971;44.702;11.030;2023-04-15T20:45:59;100790.31;;;10.13;75.50
55077;BME280;40971;44.702;11.030;2023-04-15T20:56:00;100799.75;;;10.06;76.20
55077;BME280;40971;44.702;11.030;2023-04-15T21:06:05;100814.81;;;9.96;76.33
55077;BME280;40971;44.702;11.030;2023-04-15T21:16:08;100823.75;;;9.85;76.06
55077;BME280;40971;44.702;11.030;2023-04-15T21:26:10;100817.72;;;9.59;77.83
55077;BME280;40971;44.702;11.030;2023-04-15T21:36:11;100843.34;;;9.65;77.61
55077;BME280;40971;44.702;11.030;2023-04-15T21:46:12;100844.97;;;9.41;77.61
55077;BME280;40971;44.702;11.030;2023-04-15T21:56:13;100848.81;;;9.11;78.92
55077;BME280;40971;44.702;11.030;2023-04-15T22:06:14;100857.13;;;9.06;79.35
55077;BME280;40971;44.702;11.030;2023-04-15T22:16:15;100858.13;;;8.88;79.27
55077;BME280;40971;44.702;11.030;2023-04-15T22:26:16;100860.03;;;8.86;79.37
55077;BME280;40971;44.702;11.030;2023-04-15T22:36:17;100857.06;;;8.98;78.49
55077;BME280;40971;44.702;11.030;2023-04-15T22:46:18;100888.59;;;8.89;78.10
55077;BME280;40971;44.702;11.030;2023-04-15T22:56:21;100898.34;;;8.51;79.63
55077;BME280;40971;44.702;11.030;2023-04-15T23:06:22;100903.56;;;8.51;80.09
55077;BME280;40971;44.702;11.030;2023-04-15T23:16:23;100897.03;;;8.83;79.40
55077;BME280;40971;44.702;11.030;2023-04-15T23:26:25;100902.34;;;8.73;79.26
55077;BME280;40971;44.702;11.030;2023-04-15T23:36:27;100914.47;;;8.47;80.26
55077;BME280;40971;44.702;11.030;2023-04-15T23:46:28;100920.16;;;8.42;79.64
55077;BME280;40971;44.702;11.030;2023-04-15T23:56:29;100916.34;;;8.27;79.04
